sensor_id;sensor_type;location;lat;lon;timestamp;P1;durP1;ratioP1;P2;durP2;ratioP2
59418;SDS011;45224;50.904;6.038;2023-02-28T00:00:07;11.93;;;5.70;;
59418;SDS011;45224;50.904;6.038;2023-02-28T00:01:40;10.43;;;5.68;;
59418;SDS011;45224;50.904;6.038;2023-02-28T00:03:10;14.23;;;6.87;;
59418;SDS011;45224;50.904;6.038;2023-02-28T00:04:41;12.70;;;6.20;;
59418;SDS011;45224;50.904;6.038;2023-02-28T00:06:11;13.00;;;6.20;;
59418;SDS011;45224;50.904;6.038;2023-02-28T00:07:42;12.15;;;6.60;;
59418;SDS011;45224;50.904;6.038;2023-02-28T00:09:13;12.27;;;6.40;;
59418;SDS011;45224;50.904;6.038;2023-02-28T00:10:43;10.87;;;5.53;;
59418;SDS011;45224;50.904;6.038;2023-02-28T00:12:14;12.00;;;6.30;;
59418;SDS011;45224;50.904;6.038;2023-02-28T00:13:45;12.20;;;6.57;;
59418;SDS011;45224;50.904;6.038;2023-02-28T00:15:17;9.93;;;5.93;;
59418;SDS011;45224;50.904;6.038;2023-02-28T00:18:19;11.68;;;5.35;;
59418;SDS011;45224;50.904;6.038;2023-02-28T00:19:49;12.13;;;5.87;;
59418;SDS011;45224;50.904;6.038;2023-02-28T00:21:21;13.48;;;6.10;;
59418;SDS011;45224;50.904;6.038;2023-02-28T00:22:52;9.63;;;5.80;;
59418;SDS011;45224;50.904;6.038;2023-02-28T00:24:23;10.43;;;6.13;;
59418;SDS011;45224;50.904;6.038;2023-02-28T00:25:53;12.23;;;5.90;;
59418;SDS011;45224;50.904;6.038;2023-02-28T00:27:24;10.10;;;6.20;;
59418;SDS011;45224;50.904;6.038;2023-02-28T00:28:55;12.33;;;6.23;;
59418;SDS011;45224;50.904;6.038;2023-02-28T00:31:57;13.65;;;6.50;;
59418;SDS011;45224;50.904;6.038;2023-02-28T00:33:27;13.80;;;6.13;;
59418;SDS011;45224;50.904;6.038;2023-02-28T00:34:58;11.23;;;6.20;;
59418;SDS011;45224;50.904;6.038;2023-02-28T00:36:29;11.05;;;6.05;;
59418;SDS011;45224;50.904;6.038;2023-02-28T00:38:00;15.37;;;6.30;;
59418;SDS011;45224;50.904;6.038;2023-02-28T00:39:32;12.68;;;6.25;;
59418;SDS011;45224;50.904;6.038;2023-02-28T00:41:04;12.50;;;6.45;;
59418;SDS011;45224;50.904;6.038;2023-02-28T00:42:35;9.50;;;6.20;;
59418;SDS011;45224;50.904;6.038;2023-02-28T00:44:06;11.27;;;6.57;;
59418;SDS011;45224;50.904;6.038;2023-02-28T00:45:36;10.30;;;5.50;;
59418;SDS011;45224;50.904;6.038;2023-02-28T00:47:08;17.30;;;5.97;;
59418;SDS011;45224;50.904;6.038;2023-02-28T00:48:38;10.20;;;5.43;;
59418;SDS011;45224;50.904;6.038;2023-02-28T00:50:09;13.93;;;6.00;;
59418;SDS011;45224;50.904;6.038;2023-02-28T00:51:40;9.45;;;5.47;;
59418;SDS011;45224;50.904;6.038;2023-02-28T00:53:11;8.90;;;5.83;;
59418;SDS011;45224;50.904;6.038;2023-02-28T00:54:41;8.77;;;5.50;;
59418;SDS011;45224;50.904;6.038;2023-02-28T00:56:12;10.87;;;5.70;;
59418;SDS011;45224;50.904;6.038;2023-02-28T00:57:43;10.45;;;5.80;;
59418;SDS011;45224;50.904;6.038;2023-02-28T00:59:14;10.40;;;5.43;;
59418;SDS011;45224;50.904;6.038;2023-02-28T01:00:45;8.45;;;5.55;;
59418;SDS011;45224;50.904;6.038;2023-02-28T01:02:19;11.52;;;5.43;;
59418;SDS011;45224;50.904;6.038;2023-02-28T01:03:51;11.38;;;5.78;;
59418;SDS011;45224;50.904;6.038;2023-02-28T01:05:21;11.17;;;5.40;;
59418;SDS011;45224;50.904;6.038;2023-02-28T01:06:52;12.53;;;5.50;;
59418;SDS011;45224;50.904;6.038;2023-02-28T01:08:22;12.10;;;5.83;;
59418;SDS011;45224;50.904;6.038;2023-02-28T01:09:54;9.88;;;4.85;;
59418;SDS011;45224;50.904;6.038;2023-02-28T01:11:24;13.10;;;5.37;;
59418;SDS011;45224;50.904;6.038;2023-02-28T01:12:57;8.27;;;4.90;;
59418;SDS011;45224;50.904;6.038;2023-02-28T01:14:27;7.97;;;4.90;;
59418;SDS011;45224;50.904;6.038;2023-02-28T01:15:58;11.27;;;5.43;;
59418;SDS011;45224;50.904;6.038;2023-02-28T01:17:29;14.57;;;5.40;;
59418;SDS011;45224;50.904;6.038;2023-02-28T01:18:59;10.50;;;5.30;;
59418;SDS011;45224;50.904;6.038;2023-02-28T01:20:30;8.10;;;4.97;;
59418;SDS011;45224;50.904;6.038;2023-02-28T01:22:04;11.27;;;5.37;;
59418;SDS011;45224;50.904;6.038;2023-02-28T01:23:35;9.68;;;5.05;;
59418;SDS011;45224;50.904;6.038;2023-02-28T01:25:07;8.60;;;5.20;;
59418;SDS011;45224;50.904;6.038;2023-02-28T01:26:37;7.38;;;4.47;;
59418;SDS011;45224;50.904;6.038;2023-02-28T01:28:11;9.90;;;5.20;;
59418;SDS011;45224;50.904;6.038;2023-02-28T01:29:41;12.07;;;5.17;;
59418;SDS011;45224;50.904;6.038;2023-02-28T01:31:13;11.05;;;4.78;;
59418;SDS011;45224;50.904;6.038;2023-02-28T01:32:44;10.27;;;4.53;;
59418;SDS011;45224;50.904;6.038;2023-02-28T01:34:14;6.57;;;4.23;;
59418;SDS011;45224;50.904;6.038;2023-02-28T01:35:45;10.30;;;4.83;;
59418;SDS011;45224;50.904;6.038;2023-02-28T01:37:15;11.73;;;4.67;;
59418;SDS011;45224;50.904;6.038;2023-02-28T01:38:48;10.82;;;4.88;;
59418;SDS011;45224;50.904;6.038;2023-02-28T01:40:19;10.30;;;4.78;;
59418;SDS011;45224;50.904;6.038;2023-02-28T01:41:50;8.63;;;4.57;;
59418;SDS011;45224;50.904;6.038;2023-02-28T01:43:52;10.00;;;4.75;;
59418;SDS011;45224;50.904;6.038;2023-02-28T01:45:23;9.63;;;4.95;;
59418;SDS011;45224;50.904;6.038;2023-02-28T01:46:56;7.93;;;4.80;;
59418;SDS011;45224;50.904;6.038;2023-02-28T01:48:34;8.83;;;4.40;;
59418;SDS011;45224;50.904;6.038;2023-02-28T01:50:10;7.65;;;4.47;;
59418;SDS011;45224;50.904;6.038;2023-02-28T01:51:48;7.00;;;4.68;;
59418;SDS011;45224;50.904;6.038;2023-02-28T01:53:24;8.55;;;4.25;;
59418;SDS011;45224;50.904;6.038;2023-02-28T01:55:02;10.00;;;4.63;;
59418;SDS011;45224;50.904;6.038;2023-02-28T01:56:37;8.00;;;4.30;;
59418;SDS011;45224;50.904;6.038;2023-02-28T01:58:08;9.13;;;4.63;;
59418;SDS011;45224;50.904;6.038;2023-02-28T01:59:41;8.30;;;4.60;;
59418;SDS011;45224;50.904;6.038;2023-02-28T02:01:16;9.10;;;4.60;;
59418;SDS011;45224;50.904;6.038;2023-02-28T02:02:52;9.90;;;4.47;;
59418;SDS011;45224;50.904;6.038;2023-02-28T02:04:26;8.55;;;4.70;;
59418;SDS011;45224;50.904;6.038;2023-02-28T02:06:03;9.13;;;4.57;;
59418;SDS011;45224;50.904;6.038;2023-02-28T02:07:35;8.32;;;4.65;;
59418;SDS011;45224;50.904;6.038;2023-02-28T02:09:08;9.52;;;4.65;;
59418;SDS011;45224;50.904;6.038;2023-02-28T02:14:06;7.90;;;4.10;;
59418;SDS011;45224;50.904;6.038;2023-02-28T02:17:40;8.10;;;4.03;;
59418;SDS011;45224;50.904;6.038;2023-02-28T02:27:03;9.82;;;4.20;;
59418;SDS011;45224;50.904;6.038;2023-02-28T02:35:56;9.40;;;4.05;;
59418;SDS011;45224;50.904;6.038;2023-02-28T02:37:47;8.93;;;4.20;;
59418;SDS011;45224;50.904;6.038;2023-02-28T02:41:28;7.07;;;4.45;;
59418;SDS011;45224;50.904;6.038;2023-02-28T02:43:13;6.75;;;4.30;;
59418;SDS011;45224;50.904;6.038;2023-02-28T02:44:59;7.68;;;4.07;;
59418;SDS011;45224;50.904;6.038;2023-02-28T02:46:33;8.73;;;4.13;;
59418;SDS011;45224;50.904;6.038;2023-02-28T02:48:09;7.05;;;4.10;;
59418;SDS011;45224;50.904;6.038;2023-02-28T02:49:45;7.55;;;3.88;;
59418;SDS011;45224;50.904;6.038;2023-02-28T02:51:20;8.25;;;4.22;;
59418;SDS011;45224;50.904;6.038;2023-02-28T02:52:55;10.52;;;4.20;;
59418;SDS011;45224;50.904;6.038;2023-02-28T02:54:33;8.02;;;4.03;;
59418;SDS011;45224;50.904;6.038;2023-02-28T02:56:06;7.60;;;4.03;;
59418;SDS011;45224;50.904;6.038;2023-02-28T02:57:49;9.65;;;4.20;;
59418;SDS011;45224;50.904;6.038;2023-02-28T02:59:24;6.43;;;3.90;;
59418;SDS011;45224;50.904;6.038;2023-02-28T03:00:59;8.75;;;4.00;;
59418;SDS011;45224;50.904;6.038;2023-02-28T03:02:35;7.40;;;3.65;;
59418;SDS011;45224;50.904;6.038;2023-02-28T03:04:10;6.90;;;3.95;;
59418;SDS011;45224;50.904;6.038;2023-02-28T03:05:46;6.45;;;3.80;;
59418;SDS011;45224;50.904;6.038;2023-02-28T03:07:19;8.38;;;3.88;;
59418;SDS011;45224;50.904;6.038;2023-02-28T03:08:52;8.05;;;3.90;;
59418;SDS011;45224;50.904;6.038;2023-02-28T03:10:30;8.25;;;3.92;;
59418;SDS011;45224;50.904;6.038;2023-02-28T03:12:08;7.20;;;3.85;;
59418;SDS011;45224;50.904;6.038;2023-02-28T03:19:31;6.63;;;3.40;;
59418;SDS011;45224;50.904;6.038;2023-02-28T03:23:20;7.82;;;3.60;;
59418;SDS011;45224;50.904;6.038;2023-02-28T03:26:28;8.03;;;3.67;;
59418;SDS011;45224;50.904;6.038;2023-02-28T03:28:01;7.50;;;3.40;;
59418;SDS011;45224;50.904;6.038;2023-02-28T03:29:42;7.10;;;3.67;;
59418;SDS011;45224;50.904;6.038;2023-02-28T03:33:08;8.43;;;4.00;;
59418;SDS011;45224;50.904;6.038;2023-02-28T03:34:46;7.00;;;3.47;;
59418;SDS011;45224;50.904;6.038;2023-02-28T03:36:22;6.88;;;3.70;;
59418;SDS011;45224;50.904;6.038;2023-02-28T03:38:03;6.30;;;3.80;;
59418;SDS011;45224;50.904;6.038;2023-02-28T03:39:47;8.13;;;4.07;;
59418;SDS011;45224;50.904;6.038;2023-02-28T03:41:27;7.95;;;3.80;;
59418;SDS011;45224;50.904;6.038;2023-02-28T03:43:04;7.55;;;4.00;;
59418;SDS011;45224;50.904;6.038;2023-02-28T03:44:42;9.45;;;4.43;;
59418;SDS011;45224;50.904;6.038;2023-02-28T03:46:19;10.20;;;4.40;;
59418;SDS011;45224;50.904;6.038;2023-02-28T03:49:30;10.35;;;4.88;;
59418;SDS011;45224;50.904;6.038;2023-02-28T03:51:06;10.15;;;4.65;;
59418;SDS011;45224;50.904;6.038;2023-02-28T03:52:46;9.48;;;4.90;;
59418;SDS011;45224;50.904;6.038;2023-02-28T03:54:21;11.90;;;5.38;;
59418;SDS011;45224;50.904;6.038;2023-02-28T03:59:36;9.05;;;5.43;;
59418;SDS011;45224;50.904;6.038;2023-02-28T04:02:55;11.85;;;5.63;;
59418;SDS011;45224;50.904;6.038;2023-02-28T04:04:26;12.60;;;5.65;;
59418;SDS011;45224;50.904;6.038;2023-02-28T04:05:57;12.93;;;5.73;;
59418;SDS011;45224;50.904;6.038;2023-02-28T04:07:31;12.23;;;6.28;;
59418;SDS011;45224;50.904;6.038;2023-02-28T04:09:02;9.18;;;5.78;;
59418;SDS011;45224;50.904;6.038;2023-02-28T04:10:34;11.77;;;5.70;;
59418;SDS011;45224;50.904;6.038;2023-02-28T04:12:05;10.63;;;6.17;;
59418;SDS011;45224;50.904;6.038;2023-02-28T04:13:36;10.82;;;5.47;;
59418;SDS011;45224;50.904;6.038;2023-02-28T04:15:06;10.33;;;6.07;;
59418;SDS011;45224;50.904;6.038;2023-02-28T04:16:38;9.60;;;5.72;;
59418;SDS011;45224;50.904;6.038;2023-02-28T04:18:11;13.93;;;5.82;;
59418;SDS011;45224;50.904;6.038;2023-02-28T04:19:41;10.53;;;5.77;;
59418;SDS011;45224;50.904;6.038;2023-02-28T04:21:12;9.35;;;5.80;;
59418;SDS011;45224;50.904;6.038;2023-02-28T04:22:43;11.98;;;5.57;;
59418;SDS011;45224;50.904;6.038;2023-02-28T04:24:31;12.00;;;5.53;;
59418;SDS011;45224;50.904;6.038;2023-02-28T04:26:02;9.80;;;5.45;;
59418;SDS011;45224;50.904;6.038;2023-02-28T04:27:34;8.82;;;5.28;;
59418;SDS011;45224;50.904;6.038;2023-02-28T04:29:05;10.45;;;6.15;;
59418;SDS011;45224;50.904;6.038;2023-02-28T04:30:37;11.23;;;5.75;;
59418;SDS011;45224;50.904;6.038;2023-02-28T04:32:08;10.95;;;6.10;;
59418;SDS011;45224;50.904;6.038;2023-02-28T04:33:39;9.47;;;5.47;;
59418;SDS011;45224;50.904;6.038;2023-02-28T04:35:09;13.20;;;6.17;;
59418;SDS011;45224;50.904;6.038;2023-02-28T04:36:40;11.60;;;6.30;;
59418;SDS011;45224;50.904;6.038;2023-02-28T04:38:10;13.83;;;6.93;;
59418;SDS011;45224;50.904;6.038;2023-02-28T04:39:41;12.70;;;6.73;;
59418;SDS011;45224;50.904;6.038;2023-02-28T04:41:12;12.23;;;6.10;;
59418;SDS011;45224;50.904;6.038;2023-02-28T04:42:43;10.88;;;6.43;;
59418;SDS011;45224;50.904;6.038;2023-02-28T04:44:14;11.90;;;7.10;;
59418;SDS011;45224;50.904;6.038;2023-02-28T04:45:45;10.68;;;6.53;;
59418;SDS011;45224;50.904;6.038;2023-02-28T04:47:15;18.23;;;6.70;;
59418;SDS011;45224;50.904;6.038;2023-02-28T04:48:46;11.50;;;7.07;;
59418;SDS011;45224;50.904;6.038;2023-02-28T04:50:17;8.93;;;6.45;;
59418;SDS011;45224;50.904;6.038;2023-02-28T04:51:47;13.20;;;7.17;;
59418;SDS011;45224;50.904;6.038;2023-02-28T04:53:20;12.95;;;7.20;;
59418;SDS011;45224;50.904;6.038;2023-02-28T04:56:21;11.48;;;6.78;;
59418;SDS011;45224;50.904;6.038;2023-02-28T04:57:52;11.98;;;6.82;;
59418;SDS011;45224;50.904;6.038;2023-02-28T04:59:23;14.10;;;7.07;;
59418;SDS011;45224;50.904;6.038;2023-02-28T05:00:54;14.47;;;7.43;;
59418;SDS011;45224;50.904;6.038;2023-02-28T05:02:33;12.70;;;6.93;;
59418;SDS011;45224;50.904;6.038;2023-02-28T05:04:05;13.88;;;7.10;;
59418;SDS011;45224;50.904;6.038;2023-02-28T05:05:36;12.43;;;7.13;;
59418;SDS011;45224;50.904;6.038;2023-02-28T05:07:06;17.03;;;7.80;;
59418;SDS011;45224;50.904;6.038;2023-02-28T05:08:37;16.13;;;7.30;;
59418;SDS011;45224;50.904;6.038;2023-02-28T05:10:07;13.13;;;7.80;;
59418;SDS011;45224;50.904;6.038;2023-02-28T05:11:39;16.02;;;7.82;;
59418;SDS011;45224;50.904;6.038;2023-02-28T05:13:11;13.85;;;7.72;;
59418;SDS011;45224;50.904;6.038;2023-02-28T05:14:42;12.23;;;7.15;;
59418;SDS011;45224;50.904;6.038;2023-02-28T05:16:14;16.40;;;7.38;;
59418;SDS011;45224;50.904;6.038;2023-02-28T05:17:45;11.90;;;7.13;;
59418;SDS011;45224;50.904;6.038;2023-02-28T05:19:15;13.53;;;7.20;;
59418;SDS011;45224;50.904;6.038;2023-02-28T05:20:46;15.37;;;7.20;;
59418;SDS011;45224;50.904;6.038;2023-02-28T05:22:16;14.25;;;7.72;;
59418;SDS011;45224;50.904;6.038;2023-02-28T05:23:47;14.37;;;7.50;;
59418;SDS011;45224;50.904;6.038;2023-02-28T05:25:18;11.87;;;7.20;;
59418;SDS011;45224;50.904;6.038;2023-02-28T05:26:51;12.65;;;7.07;;
59418;SDS011;45224;50.904;6.038;2023-02-28T05:28:23;18.52;;;7.40;;
59418;SDS011;45224;50.904;6.038;2023-02-28T05:29:53;15.27;;;7.18;;
59418;SDS011;45224;50.904;6.038;2023-02-28T05:31:24;15.50;;;7.40;;
59418;SDS011;45224;50.904;6.038;2023-02-28T05:32:55;14.35;;;7.78;;
59418;SDS011;45224;50.904;6.038;2023-02-28T05:34:25;11.32;;;7.40;;
59418;SDS011;45224;50.904;6.038;2023-02-28T05:35:56;15.87;;;8.17;;
59418;SDS011;45224;50.904;6.038;2023-02-28T05:37:26;14.87;;;7.43;;
59418;SDS011;45224;50.904;6.038;2023-02-28T05:38:57;12.30;;;7.37;;
59418;SDS011;45224;50.904;6.038;2023-02-28T05:40:27;15.30;;;7.73;;
59418;SDS011;45224;50.904;6.038;2023-02-28T05:41:58;13.70;;;7.30;;
59418;SDS011;45224;50.904;6.038;2023-02-28T05:43:28;11.17;;;6.87;;
59418;SDS011;45224;50.904;6.038;2023-02-28T05:44:59;11.43;;;7.30;;
59418;SDS011;45224;50.904;6.038;2023-02-28T05:46:29;11.37;;;6.53;;
59418;SDS011;45224;50.904;6.038;2023-02-28T05:48:00;14.90;;;7.17;;
59418;SDS011;45224;50.904;6.038;2023-02-28T05:49:30;12.17;;;7.37;;
59418;SDS011;45224;50.904;6.038;2023-02-28T05:51:01;12.73;;;6.53;;
59418;SDS011;45224;50.904;6.038;2023-02-28T05:52:32;14.95;;;7.85;;
59418;SDS011;45224;50.904;6.038;2023-02-28T05:54:03;11.07;;;6.67;;
59418;SDS011;45224;50.904;6.038;2023-02-28T05:55:33;15.68;;;7.25;;
59418;SDS011;45224;50.904;6.038;2023-02-28T05:57:06;12.50;;;7.82;;
59418;SDS011;45224;50.904;6.038;2023-02-28T05:58:36;14.23;;;6.97;;
59418;SDS011;45224;50.904;6.038;2023-02-28T06:00:07;13.03;;;7.10;;
59418;SDS011;45224;50.904;6.038;2023-02-28T06:01:43;10.55;;;6.65;;
59418;SDS011;45224;50.904;6.038;2023-02-28T06:03:18;12.48;;;6.93;;
59418;SDS011;45224;50.904;6.038;2023-02-28T06:04:48;12.07;;;6.67;;
59418;SDS011;45224;50.904;6.038;2023-02-28T06:06:18;11.73;;;6.90;;
59418;SDS011;45224;50.904;6.038;2023-02-28T06:07:49;16.50;;;7.17;;
59418;SDS011;45224;50.904;6.038;2023-02-28T06:09:20;14.83;;;7.27;;
59418;SDS011;45224;50.904;6.038;2023-02-28T06:10:50;18.00;;;7.20;;
59418;SDS011;45224;50.904;6.038;2023-02-28T06:12:21;12.40;;;6.90;;
59418;SDS011;45224;50.904;6.038;2023-02-28T06:13:52;12.43;;;7.13;;
59418;SDS011;45224;50.904;6.038;2023-02-28T06:15:24;11.27;;;6.82;;
59418;SDS011;45224;50.904;6.038;2023-02-28T06:16:54;11.77;;;6.63;;
59418;SDS011;45224;50.904;6.038;2023-02-28T06:18:25;11.80;;;6.90;;
59418;SDS011;45224;50.904;6.038;2023-02-28T06:19:55;12.10;;;6.83;;
59418;SDS011;45224;50.904;6.038;2023-02-28T06:21:26;11.53;;;7.03;;
59418;SDS011;45224;50.904;6.038;2023-02-28T06:23:00;14.10;;;6.40;;
59418;SDS011;45224;50.904;6.038;2023-02-28T06:24:30;11.07;;;6.67;;
59418;SDS011;45224;50.904;6.038;2023-02-28T06:26:01;12.38;;;7.15;;
59418;SDS011;45224;50.904;6.038;2023-02-28T06:27:32;11.25;;;6.20;;
59418;SDS011;45224;50.904;6.038;2023-02-28T06:29:03;11.63;;;6.70;;
59418;SDS011;45224;50.904;6.038;2023-02-28T06:30:34;10.40;;;6.70;;
59418;SDS011;45224;50.904;6.038;2023-02-28T06:32:05;9.43;;;5.83;;
59418;SDS011;45224;50.904;6.038;2023-02-28T06:33:37;9.93;;;6.35;;
59418;SDS011;45224;50.904;6.038;2023-02-28T06:35:08;15.00;;;6.60;;
59418;SDS011;45224;50.904;6.038;2023-02-28T06:36:39;14.63;;;6.72;;
59418;SDS011;45224;50.904;6.038;2023-02-28T06:39:41;10.57;;;5.97;;
59418;SDS011;45224;50.904;6.038;2023-02-28T06:41:11;8.23;;;5.77;;
59418;SDS011;45224;50.904;6.038;2023-02-28T06:42:42;11.80;;;6.13;;
59418;SDS011;45224;50.904;6.038;2023-02-28T06:44:16;13.32;;;6.10;;
59418;SDS011;45224;50.904;6.038;2023-02-28T06:45:47;11.90;;;6.50;;
59418;SDS011;45224;50.904;6.038;2023-02-28T06:47:18;10.17;;;6.13;;
59418;SDS011;45224;50.904;6.038;2023-02-28T06:48:48;11.30;;;6.17;;
59418;SDS011;45224;50.904;6.038;2023-02-28T06:50:19;12.60;;;6.47;;
59418;SDS011;45224;50.904;6.038;2023-02-28T06:51:50;13.55;;;7.03;;
59418;SDS011;45224;50.904;6.038;2023-02-28T06:53:21;11.20;;;6.60;;
59418;SDS011;45224;50.904;6.038;2023-02-28T06:54:51;10.93;;;5.70;;
59418;SDS011;45224;50.904;6.038;2023-02-28T06:56:29;10.77;;;5.93;;
59418;SDS011;45224;50.904;6.038;2023-02-28T06:58:00;13.67;;;6.20;;
59418;SDS011;45224;50.904;6.038;2023-02-28T06:59:30;12.37;;;6.10;;
59418;SDS011;45224;50.904;6.038;2023-02-28T07:01:01;10.23;;;5.80;;
59418;SDS011;45224;50.904;6.038;2023-02-28T07:02:33;14.98;;;5.57;;
59418;SDS011;45224;50.904;6.038;2023-02-28T07:04:05;17.30;;;6.70;;
59418;SDS011;45224;50.904;6.038;2023-02-28T07:05:36;11.15;;;5.40;;
59418;SDS011;45224;50.904;6.038;2023-02-28T07:07:08;11.90;;;6.25;;
59418;SDS011;45224;50.904;6.038;2023-02-28T07:08:38;11.70;;;6.30;;
59418;SDS011;45224;50.904;6.038;2023-02-28T07:10:11;10.55;;;5.63;;
59418;SDS011;45224;50.904;6.038;2023-02-28T07:11:42;10.75;;;5.15;;
59418;SDS011;45224;50.904;6.038;2023-02-28T07:13:13;11.77;;;5.57;;
59418;SDS011;45224;50.904;6.038;2023-02-28T07:14:43;8.77;;;5.27;;
59418;SDS011;45224;50.904;6.038;2023-02-28T07:16:14;9.10;;;5.30;;
59418;SDS011;45224;50.904;6.038;2023-02-28T07:17:44;8.48;;;5.05;;
59418;SDS011;45224;50.904;6.038;2023-02-28T07:19:15;9.87;;;5.27;;
59418;SDS011;45224;50.904;6.038;2023-02-28T07:20:45;7.50;;;4.20;;
59418;SDS011;45224;50.904;6.038;2023-02-28T07:22:16;8.43;;;4.77;;
59418;SDS011;45224;50.904;6.038;2023-02-28T07:23:46;8.40;;;4.63;;
59418;SDS011;45224;50.904;6.038;2023-02-28T07:25:17;9.43;;;4.73;;
59418;SDS011;45224;50.904;6.038;2023-02-28T07:26:48;7.93;;;4.47;;
59418;SDS011;45224;50.904;6.038;2023-02-28T07:28:18;8.40;;;4.67;;
59418;SDS011;45224;50.904;6.038;2023-02-28T07:29:49;7.80;;;4.40;;
59418;SDS011;45224;50.904;6.038;2023-02-28T07:31:20;7.05;;;4.30;;
59418;SDS011;45224;50.904;6.038;2023-02-28T07:32:50;7.50;;;4.60;;
59418;SDS011;45224;50.904;6.038;2023-02-28T07:34:21;7.17;;;4.90;;
59418;SDS011;45224;50.904;6.038;2023-02-28T07:37:29;10.15;;;4.53;;
59418;SDS011;45224;50.904;6.038;2023-02-28T07:39:06;8.35;;;4.57;;
59418;SDS011;45224;50.904;6.038;2023-02-28T07:40:39;9.20;;;4.82;;
59418;SDS011;45224;50.904;6.038;2023-02-28T07:42:10;7.90;;;4.80;;
59418;SDS011;45224;50.904;6.038;2023-02-28T07:43:43;8.48;;;4.70;;
59418;SDS011;45224;50.904;6.038;2023-02-28T07:45:14;11.82;;;5.07;;
59418;SDS011;45224;50.904;6.038;2023-02-28T07:46:45;13.07;;;5.30;;
59418;SDS011;45224;50.904;6.038;2023-02-28T07:48:15;14.13;;;5.00;;
59418;SDS011;45224;50.904;6.038;2023-02-28T07:49:46;8.43;;;5.00;;
59418;SDS011;45224;50.904;6.038;2023-02-28T07:51:16;10.33;;;5.17;;
59418;SDS011;45224;50.904;6.038;2023-02-28T07:52:47;8.88;;;4.72;;
59418;SDS011;45224;50.904;6.038;2023-02-28T07:54:18;11.75;;;4.97;;
59418;SDS011;45224;50.904;6.038;2023-02-28T07:55:48;9.77;;;4.67;;
59418;SDS011;45224;50.904;6.038;2023-02-28T07:57:19;10.07;;;5.10;;
59418;SDS011;45224;50.904;6.038;2023-02-28T07:58:49;8.63;;;4.27;;
59418;SDS011;45224;50.904;6.038;2023-02-28T08:00:20;6.53;;;4.27;;
59418;SDS011;45224;50.904;6.038;2023-02-28T08:01:51;8.65;;;4.70;;
59418;SDS011;45224;50.904;6.038;2023-02-28T08:03:23;7.37;;;4.70;;
59418;SDS011;45224;50.904;6.038;2023-02-28T08:04:54;7.45;;;4.60;;
59418;SDS011;45224;50.904;6.038;2023-02-28T08:06:25;9.73;;;4.33;;
59418;SDS011;45224;50.904;6.038;2023-02-28T08:07:56;6.38;;;4.38;;
59418;SDS011;45224;50.904;6.038;2023-02-28T08:09:27;9.07;;;4.43;;
59418;SDS011;45224;50.904;6.038;2023-02-28T08:10:58;6.33;;;4.27;;
59418;SDS011;45224;50.904;6.038;2023-02-28T08:12:29;6.70;;;4.40;;
59418;SDS011;45224;50.904;6.038;2023-02-28T08:14:00;7.67;;;3.90;;
59418;SDS011;45224;50.904;6.038;2023-02-28T08:15:31;7.67;;;4.10;;
59418;SDS011;45224;50.904;6.038;2023-02-28T08:17:01;5.97;;;3.60;;
59418;SDS011;45224;50.904;6.038;2023-02-28T08:18:32;6.85;;;3.80;;
59418;SDS011;45224;50.904;6.038;2023-02-28T08:20:03;5.05;;;3.20;;
59418;SDS011;45224;50.904;6.038;2023-02-28T08:21:34;5.82;;;3.45;;
59418;SDS011;45224;50.904;6.038;2023-02-28T08:23:05;6.90;;;3.33;;
59418;SDS011;45224;50.904;6.038;2023-02-28T08:24:35;4.60;;;3.40;;
59418;SDS011;45224;50.904;6.038;2023-02-28T08:26:06;6.90;;;3.67;;
59418;SDS011;45224;50.904;6.038;2023-02-28T08:27:36;8.95;;;3.22;;
59418;SDS011;45224;50.904;6.038;2023-02-28T08:29:07;5.93;;;3.40;;
59418;SDS011;45224;50.904;6.038;2023-02-28T08:30:37;5.03;;;3.07;;
59418;SDS011;45224;50.904;6.038;2023-02-28T08:32:11;7.88;;;3.13;;
59418;SDS011;45224;50.904;6.038;2023-02-28T08:33:42;4.70;;;3.08;;
59418;SDS011;45224;50.904;6.038;2023-02-28T08:35:14;4.90;;;3.08;;
59418;SDS011;45224;50.904;6.038;2023-02-28T08:36:45;8.73;;;3.47;;
59418;SDS011;45224;50.904;6.038;2023-02-28T08:38:16;5.30;;;3.35;;
59418;SDS011;45224;50.904;6.038;2023-02-28T08:39:49;5.07;;;3.33;;
59418;SDS011;45224;50.904;6.038;2023-02-28T08:41:20;8.93;;;2.87;;
59418;SDS011;45224;50.904;6.038;2023-02-28T08:42:50;9.07;;;3.67;;
59418;SDS011;45224;50.904;6.038;2023-02-28T08:44:21;4.83;;;3.13;;
59418;SDS011;45224;50.904;6.038;2023-02-28T08:45:52;4.50;;;3.07;;
59418;SDS011;45224;50.904;6.038;2023-02-28T08:47:23;4.25;;;3.00;;
59418;SDS011;45224;50.904;6.038;2023-02-28T08:48:54;4.30;;;2.95;;
59418;SDS011;45224;50.904;6.038;2023-02-28T08:50:25;5.60;;;3.03;;
59418;SDS011;45224;50.904;6.038;2023-02-28T08:51:56;5.90;;;2.60;;
59418;SDS011;45224;50.904;6.038;2023-02-28T08:53:27;5.05;;;3.05;;
59418;SDS011;45224;50.904;6.038;2023-02-28T08:54:58;6.15;;;2.95;;
59418;SDS011;45224;50.904;6.038;2023-02-28T08:56:28;6.50;;;2.75;;
59418;SDS011;45224;50.904;6.038;2023-02-28T08:57:59;6.03;;;2.80;;
59418;SDS011;45224;50.904;6.038;2023-02-28T08:59:31;4.97;;;2.88;;
59418;SDS011;45224;50.904;6.038;2023-02-28T09:01:12;4.18;;;2.67;;
59418;SDS011;45224;50.904;6.038;2023-02-28T09:02:45;6.43;;;2.83;;
59418;SDS011;45224;50.904;6.038;2023-02-28T09:04:15;5.00;;;2.73;;
59418;SDS011;45224;50.904;6.038;2023-02-28T09:06:01;6.03;;;2.90;;
59418;SDS011;45224;50.904;6.038;2023-02-28T09:07:32;5.90;;;2.70;;
59418;SDS011;45224;50.904;6.038;2023-02-28T09:09:02;4.50;;;2.67;;
59418;SDS011;45224;50.904;6.038;2023-02-28T09:10:36;4.78;;;2.70;;
59418;SDS011;45224;50.904;6.038;2023-02-28T09:12:06;6.40;;;2.40;;
59418;SDS011;45224;50.904;6.038;2023-02-28T09:13:37;6.15;;;2.60;;
59418;SDS011;45224;50.904;6.038;2023-02-28T09:15:09;4.10;;;2.67;;
59418;SDS011;45224;50.904;6.038;2023-02-28T09:16:40;4.10;;;2.45;;
59418;SDS011;45224;50.904;6.038;2023-02-28T09:18:10;5.40;;;2.60;;
59418;SDS011;45224;50.904;6.038;2023-02-28T09:19:41;3.60;;;2.55;;
59418;SDS011;45224;50.904;6.038;2023-02-28T09:21:13;6.88;;;2.65;;
59418;SDS011;45224;50.904;6.038;2023-02-28T09:22:45;6.72;;;2.42;;
59418;SDS011;45224;50.904;6.038;2023-02-28T09:24:16;3.37;;;2.20;;
59418;SDS011;45224;50.904;6.038;2023-02-28T09:25:47;3.42;;;2.33;;
59418;SDS011;45224;50.904;6.038;2023-02-28T09:27:19;4.03;;;2.17;;
59418;SDS011;45224;50.904;6.038;2023-02-28T09:28:50;5.07;;;2.50;;
59418;SDS011;45224;50.904;6.038;2023-02-28T09:30:21;4.90;;;2.35;;
59418;SDS011;45224;50.904;6.038;2023-02-28T09:31:51;4.07;;;2.40;;
59418;SDS011;45224;50.904;6.038;2023-02-28T09:33:22;6.95;;;2.33;;
59418;SDS011;45224;50.904;6.038;2023-02-28T09:34:53;3.85;;;2.47;;
59418;SDS011;45224;50.904;6.038;2023-02-28T09:36:24;2.42;;;1.83;;
59418;SDS011;45224;50.904;6.038;2023-02-28T09:37:56;4.80;;;2.35;;
59418;SDS011;45224;50.904;6.038;2023-02-28T09:39:28;5.18;;;2.03;;
59418;SDS011;45224;50.904;6.038;2023-02-28T09:41:00;5.80;;;2.17;;
59418;SDS011;45224;50.904;6.038;2023-02-28T09:42:33;5.15;;;2.72;;
59418;SDS011;45224;50.904;6.038;2023-02-28T09:44:04;4.57;;;2.10;;
59418;SDS011;45224;50.904;6.038;2023-02-28T09:45:36;2.28;;;1.60;;
59418;SDS011;45224;50.904;6.038;2023-02-28T09:49:06;2.75;;;2.00;;
59418;SDS011;45224;50.904;6.038;2023-02-28T09:50:43;2.53;;;1.50;;
59418;SDS011;45224;50.904;6.038;2023-02-28T09:52:19;2.58;;;1.80;;
59418;SDS011;45224;50.904;6.038;2023-02-28T09:53:54;3.97;;;1.67;;
59418;SDS011;45224;50.904;6.038;2023-02-28T09:55:37;2.47;;;1.60;;
59418;SDS011;45224;50.904;6.038;2023-02-28T09:57:29;2.50;;;1.65;;
59418;SDS011;45224;50.904;6.038;2023-02-28T09:59:10;2.13;;;1.70;;
59418;SDS011;45224;50.904;6.038;2023-02-28T10:09:35;4.30;;;1.88;;
59418;SDS011;45224;50.904;6.038;2023-02-28T10:11:07;2.17;;;1.30;;